createdAt,value
2017-08-08T00:02:28.234Z,7.82
2017-08-08T00:04:56.799Z,8.20
2017-08-08T00:07:24.654Z,9.13
2017-08-08T00:09:52.465Z,10.05
2017-08-08T00:12:20.280Z,10.18
2017-08-08T00:14:48.136Z,8.70
2017-08-08T00:17:15.939Z,8.55
2017-08-08T00:19:43.744Z,8.05
2017-08-08T00:22:11.599Z,8.27
2017-08-08T00:24:39.399Z,8.70
2017-08-08T00:27:07.209Z,10.15
2017-08-08T00:29:35.071Z,9.00
2017-08-08T00:32:02.866Z,9.07
2017-08-08T00:34:30.662Z,9.82
2017-08-08T00:36:59.296Z,8.32
2017-08-08T00:39:27.087Z,8.23
2017-08-08T00:41:54.893Z,8.50
2017-08-08T00:44:22.728Z,8.32
2017-08-08T00:46:50.536Z,8.18
2017-08-08T00:49:18.346Z,7.70
2017-08-08T00:51:46.190Z,8.25
2017-08-08T00:54:14.011Z,8.27
2017-08-08T00:56:41.817Z,7.80
2017-08-08T00:59:09.648Z,8.15
2017-08-08T01:01:37.447Z,7.80
2017-08-08T01:04:05.262Z,7.95
2017-08-08T01:06:33.096Z,8.13
2017-08-08T01:09:01.664Z,8.52
2017-08-08T01:11:29.475Z,10.45
2017-08-08T01:13:57.363Z,9.52
2017-08-08T01:16:25.160Z,9.73
2017-08-08T01:18:53.732Z,9.52
2017-08-08T01:21:21.562Z,9.48
2017-08-08T01:23:49.370Z,9.27
2017-08-08T01:26:17.951Z,9.18
2017-08-08T01:28:46.552Z,10.45
2017-08-08T01:31:14.392Z,9.40
2017-08-08T01:33:43.031Z,9.57
2017-08-08T01:36:10.916Z,9.55
2017-08-08T01:38:38.736Z,9.50
2017-08-08T01:41:06.596Z,10.05
2017-08-08T01:43:34.410Z,9.82
2017-08-08T01:46:02.271Z,8.80
2017-08-08T01:48:30.078Z,8.90
2017-08-08T01:50:57.933Z,8.98
2017-08-08T01:53:26.551Z,8.18
2017-08-08T01:55:54.380Z,8.82
2017-08-08T01:58:22.263Z,9.05
2017-08-08T02:00:50.160Z,9.10
2017-08-08T02:03:18.000Z,7.55
2017-08-08T02:05:45.855Z,8.05
2017-08-08T02:08:13.668Z,9.65
2017-08-08T02:10:41.569Z,9.93
2017-08-08T02:13:09.390Z,8.80
2017-08-08T02:15:37.244Z,9.15
2017-08-08T02:18:05.091Z,9.57
2017-08-08T02:20:32.929Z,8.50
2017-08-08T02:23:00.832Z,8.93
2017-08-08T02:25:28.658Z,10.35
2017-08-08T02:27:56.497Z,10.55
2017-08-08T02:30:24.404Z,9.40
2017-08-08T02:32:52.248Z,10.40
2017-08-08T02:35:20.142Z,9.98
2017-08-08T02:37:47.968Z,10.25
2017-08-08T02:40:15.824Z,9.60
2017-08-08T02:42:44.423Z,9.95
2017-08-08T02:45:12.231Z,8.82
2017-08-08T02:47:40.095Z,8.80
2017-08-08T02:50:07.893Z,9.82
2017-08-08T02:52:36.463Z,9.13
2017-08-08T02:55:04.304Z,9.93
2017-08-08T02:57:32.107Z,9.40
2017-08-08T02:59:59.984Z,9.93
2017-08-08T03:02:27.785Z,9.85
2017-08-08T03:04:55.587Z,9.18
2017-08-08T03:07:24.191Z,9.05
2017-08-08T03:09:51.992Z,9.32
2017-08-08T03:12:19.854Z,9.38
2017-08-08T03:14:47.659Z,9.82
2017-08-08T03:17:15.466Z,10.20
2017-08-08T03:19:43.302Z,9.40
2017-08-08T03:22:11.100Z,9.30
2017-08-08T03:24:38.959Z,9.65
2017-08-08T03:27:06.751Z,7.97
2017-08-08T03:29:35.017Z,7.82
2017-08-08T03:32:02.868Z,8.80
2017-08-08T03:34:30.671Z,9.85
2017-08-08T03:36:58.537Z,8.40
2017-08-08T03:39:26.354Z,9.43
2017-08-08T03:41:54.191Z,8.02
2017-08-08T03:44:22.071Z,9.77
2017-08-08T03:46:49.923Z,9.95
2017-08-08T03:49:17.820Z,7.87
2017-08-08T03:51:45.661Z,9.20
2017-08-08T03:54:13.500Z,8.95
2017-08-08T03:56:41.332Z,8.38
2017-08-08T03:59:09.892Z,9.32
2017-08-08T04:01:37.754Z,7.72
2017-08-08T04:04:05.583Z,8.57
2017-08-08T04:06:34.322Z,7.07
2017-08-08T04:09:02.990Z,9.27
2017-08-08T04:11:30.791Z,7.85
2017-08-08T04:13:58.655Z,7.75
2017-08-08T04:16:26.460Z,6.80
2017-08-08T04:18:54.258Z,8.40
2017-08-08T04:21:22.869Z,8.60
2017-08-08T04:23:50.683Z,8.45
2017-08-08T04:26:18.536Z,7.32
2017-08-08T04:28:46.331Z,6.75
2017-08-08T04:31:14.884Z,6.72
2017-08-08T04:33:42.719Z,7.15
2017-08-08T04:36:10.530Z,7.60
2017-08-08T04:38:39.168Z,6.80
2017-08-08T04:41:06.995Z,8.75
2017-08-08T04:43:34.796Z,6.45
2017-08-08T04:46:02.619Z,6.75
2017-08-08T04:48:30.431Z,8.25
2017-08-08T04:50:58.284Z,6.60
2017-08-08T04:53:26.107Z,7.20
2017-08-08T04:55:53.896Z,6.80
2017-08-08T04:58:21.725Z,6.45
2017-08-08T05:00:50.323Z,6.65
2017-08-08T05:03:18.340Z,5.55
2017-08-08T05:05:46.408Z,6.32
2017-08-08T05:08:14.358Z,5.93
2017-08-08T05:10:42.206Z,6.70
2017-08-08T05:13:10.041Z,6.68
2017-08-08T05:15:37.931Z,5.97
2017-08-08T05:18:05.815Z,5.37
2017-08-08T05:20:33.606Z,5.68
2017-08-08T05:23:01.436Z,5.35
2017-08-08T05:25:29.262Z,5.43
2017-08-08T05:27:57.138Z,5.25
2017-08-08T05:30:24.947Z,4.87
2017-08-08T05:32:52.771Z,4.85
2017-08-08T05:35:20.609Z,5.95
2017-08-08T05:37:48.410Z,5.22
2017-08-08T05:40:16.275Z,4.75
2017-08-08T05:42:44.148Z,4.70
2017-08-08T05:45:11.983Z,4.97
2017-08-08T05:47:39.827Z,5.10
2017-08-08T05:50:07.645Z,4.62
2017-08-08T05:52:35.519Z,4.65
2017-08-08T05:55:03.418Z,4.90
2017-08-08T05:57:31.269Z,4.82
2017-08-08T05:59:59.880Z,4.50
2017-08-08T06:02:27.680Z,5.30
2017-08-08T06:04:55.581Z,3.67
2017-08-08T06:07:24.147Z,3.35
2017-08-08T06:09:51.955Z,3.30
2017-08-08T06:12:19.789Z,3.70
2017-08-08T06:14:47.600Z,4.25
2017-08-08T06:17:15.459Z,3.62
2017-08-08T06:19:43.263Z,3.87
2017-08-08T06:22:11.085Z,4.25
2017-08-08T06:24:38.916Z,3.55
2017-08-08T06:27:06.745Z,3.53
2017-08-08T06:29:34.603Z,3.72
2017-08-08T06:32:02.408Z,4.03
2017-08-08T06:34:30.212Z,3.80
2017-08-08T06:36:58.037Z,3.65
2017-08-08T06:39:25.852Z,4.25
2017-08-08T06:41:53.716Z,3.80
2017-08-08T06:44:21.528Z,3.87
2017-08-08T06:46:49.331Z,3.83
2017-08-08T06:49:17.167Z,3.30
2017-08-08T06:51:44.974Z,3.20
2017-08-08T06:54:13.617Z,3.03
2017-08-08T06:56:41.427Z,3.55
2017-08-08T06:59:10.063Z,3.30
2017-08-08T07:01:37.922Z,3.42
2017-08-08T07:04:05.732Z,3.90
2017-08-08T07:06:34.375Z,3.70
2017-08-08T07:09:02.202Z,3.72
2017-08-08T07:11:30.018Z,2.95
2017-08-08T07:13:57.864Z,2.78
2017-08-08T07:16:25.675Z,2.95
2017-08-08T07:18:54.311Z,2.40
2017-08-08T07:21:22.137Z,3.70
2017-08-08T07:23:49.939Z,3.65
2017-08-08T07:26:17.786Z,3.30
2017-08-08T07:28:45.600Z,2.70
2017-08-08T07:31:14.242Z,2.75
2017-08-08T07:33:42.052Z,3.33
2017-08-08T07:36:10.639Z,3.22
2017-08-08T07:38:38.508Z,2.78
2017-08-08T07:41:06.335Z,3.03
2017-08-08T07:43:34.237Z,2.67
2017-08-08T07:46:02.054Z,3.20
2017-08-08T07:48:29.843Z,3.40
2017-08-08T07:50:58.443Z,3.35
2017-08-08T07:53:26.247Z,3.22
2017-08-08T07:55:54.116Z,3.00
2017-08-08T07:58:21.920Z,2.47
2017-08-08T08:00:50.487Z,3.20
2017-08-08T08:03:19.149Z,3.75
2017-08-08T08:05:46.967Z,3.70
2017-08-08T08:08:14.839Z,3.00
2017-08-08T08:10:42.641Z,3.37
2017-08-08T08:13:10.448Z,3.05
2017-08-08T08:15:38.333Z,2.70
2017-08-08T08:18:06.136Z,3.15
2017-08-08T08:20:33.992Z,3.08
2017-08-08T08:23:01.795Z,2.60
2017-08-08T08:25:29.603Z,2.90
2017-08-08T08:27:57.432Z,2.62
2017-08-08T08:30:25.241Z,3.22
2017-08-08T08:32:53.286Z,3.00
2017-08-08T08:35:21.161Z,2.35
2017-08-08T08:37:48.983Z,2.25
2017-08-08T08:40:16.833Z,2.50
2017-08-08T08:42:44.662Z,2.10
2017-08-08T08:45:12.544Z,2.55
2017-08-08T08:47:40.355Z,2.40
2017-08-08T08:50:08.163Z,1.93
2017-08-08T08:52:36.009Z,2.50
2017-08-08T08:55:03.813Z,2.30
2017-08-08T08:57:31.719Z,2.37
2017-08-08T08:59:59.529Z,1.80
2017-08-08T09:02:28.128Z,2.10
2017-08-08T09:04:55.968Z,2.10
2017-08-08T09:07:24.551Z,2.30
2017-08-08T09:09:53.200Z,2.00
2017-08-08T09:12:21.019Z,2.17
2017-08-08T09:14:48.841Z,1.80
2017-08-08T09:17:16.682Z,2.30
2017-08-08T09:19:44.502Z,2.28
2017-08-08T09:22:12.366Z,2.03
2017-08-08T09:24:40.176Z,1.50
2017-08-08T09:27:07.987Z,2.28
2017-08-08T09:29:35.848Z,1.80
2017-08-08T09:32:03.671Z,2.72
2017-08-08T09:34:31.545Z,2.47
2017-08-08T09:36:59.359Z,2.28
2017-08-08T09:39:27.191Z,2.00
2017-08-08T09:41:55.802Z,2.60
2017-08-08T09:44:23.599Z,2.80
2017-08-08T09:46:51.467Z,2.40
2017-08-08T09:49:19.267Z,1.98
2017-08-08T09:51:47.832Z,2.10
2017-08-08T09:54:15.659Z,2.25
2017-08-08T09:56:43.451Z,1.70
2017-08-08T09:59:11.320Z,1.83
2017-08-08T10:01:39.128Z,2.17
2017-08-08T10:04:06.943Z,1.77
2017-08-08T10:06:34.780Z,2.08
2017-08-08T10:09:02.643Z,1.83
2017-08-08T10:11:30.500Z,2.37
2017-08-08T10:13:58.291Z,2.50
2017-08-08T10:16:26.103Z,1.70
2017-08-08T10:18:53.943Z,2.05
2017-08-08T10:21:22.538Z,1.83
2017-08-08T10:23:50.394Z,2.85
2017-08-08T10:26:18.186Z,2.90
2017-08-08T10:28:45.991Z,2.83
2017-08-08T10:31:13.836Z,2.40
2017-08-08T10:33:41.626Z,2.37
2017-08-08T10:36:10.251Z,2.30
2017-08-08T10:38:38.047Z,2.53
2017-08-08T10:41:05.848Z,2.25
2017-08-08T10:43:34.454Z,1.92
2017-08-08T10:46:02.266Z,2.87
2017-08-08T10:48:30.139Z,2.40
2017-08-08T10:50:58.711Z,2.70
2017-08-08T10:53:26.508Z,2.10
2017-08-08T10:55:54.382Z,2.40
2017-08-08T10:58:22.197Z,3.15
2017-08-08T11:00:50.056Z,2.80
2017-08-08T11:03:17.855Z,2.25
2017-08-08T11:05:45.669Z,2.72
2017-08-08T11:08:13.500Z,2.90
2017-08-08T11:10:41.324Z,2.42
2017-08-08T11:13:09.947Z,3.00
2017-08-08T11:15:37.796Z,2.80
2017-08-08T11:18:05.612Z,2.65
2017-08-08T11:20:33.436Z,2.58
2017-08-08T11:23:01.232Z,3.10
2017-08-08T11:25:29.091Z,2.45
2017-08-08T11:27:56.889Z,2.60
2017-08-08T11:30:25.460Z,2.45
2017-08-08T11:32:53.301Z,2.83
2017-08-08T11:35:21.099Z,2.47
2017-08-08T11:37:49.728Z,2.83
2017-08-08T11:40:17.521Z,2.50
2017-08-08T11:42:45.330Z,2.30
2017-08-08T11:45:13.167Z,2.72
2017-08-08T11:47:41.738Z,2.80
2017-08-08T11:50:10.379Z,3.75
2017-08-08T11:52:38.191Z,2.50
2017-08-08T11:55:05.996Z,3.53
2017-08-08T11:57:33.840Z,2.62
2017-08-08T12:00:01.646Z,3.15
2017-08-08T12:02:29.498Z,3.15
2017-08-08T12:04:57.306Z,2.97
2017-08-08T12:07:25.880Z,2.50
2017-08-08T12:09:54.535Z,3.20
2017-08-08T12:12:22.344Z,3.28
2017-08-08T12:14:50.195Z,3.30
2017-08-08T12:17:18.004Z,12.27
2017-08-08T12:19:45.803Z,3.30
2017-08-08T12:22:13.634Z,2.75
2017-08-08T12:24:41.446Z,3.10
2017-08-08T12:27:10.089Z,3.15
2017-08-08T12:29:37.887Z,1.90
2017-08-08T12:32:06.463Z,2.33
2017-08-08T12:34:35.059Z,2.97
2017-08-08T12:37:02.863Z,2.90
2017-08-08T12:39:30.732Z,2.83
2017-08-08T12:41:58.538Z,2.62
2017-08-08T12:44:27.107Z,2.50
2017-08-08T12:46:54.945Z,2.50
2017-08-08T12:49:22.756Z,2.40
2017-08-08T12:51:51.406Z,2.67
2017-08-08T12:54:19.204Z,3.20
2017-08-08T12:56:47.011Z,2.70
2017-08-08T12:59:14.849Z,3.50
2017-08-08T13:01:42.676Z,3.60
2017-08-08T13:04:11.293Z,2.45
2017-08-08T13:06:39.095Z,2.55
2017-08-08T13:09:06.926Z,3.22
2017-08-08T13:11:34.771Z,3.70
2017-08-08T13:14:02.559Z,2.62
2017-08-08T13:16:30.415Z,2.95
2017-08-08T13:18:58.208Z,2.78
2017-08-08T13:21:26.014Z,2.83
2017-08-08T13:23:53.849Z,3.40
2017-08-08T13:26:21.660Z,2.83
2017-08-08T13:28:49.547Z,2.50
2017-08-08T13:31:17.360Z,2.40
2017-08-08T13:33:45.935Z,2.92
2017-08-08T13:36:14.542Z,3.33
2017-08-08T13:38:42.356Z,2.20
2017-08-08T13:41:10.220Z,2.72
2017-08-08T13:43:38.043Z,3.25
2017-08-08T13:46:05.843Z,3.37
2017-08-08T13:48:33.672Z,3.20
2017-08-08T13:51:01.483Z,3.60
2017-08-08T13:53:30.103Z,3.37
2017-08-08T13:55:57.917Z,3.35
2017-08-08T13:58:25.720Z,3.40
2017-08-08T14:00:53.563Z,3.45
2017-08-08T14:03:22.120Z,4.03
2017-08-08T14:05:50.004Z,3.17
2017-08-08T14:08:18.572Z,3.78
2017-08-08T14:10:46.388Z,2.55
2017-08-08T14:13:14.215Z,3.85
2017-08-08T14:15:42.776Z,3.78
2017-08-08T14:18:10.653Z,3.33
2017-08-08T14:20:39.216Z,3.58
2017-08-08T14:23:07.016Z,5.10
2017-08-08T14:25:34.846Z,2.85
2017-08-08T14:28:02.651Z,2.90
2017-08-08T14:30:30.517Z,3.25
2017-08-08T14:32:58.327Z,3.80
2017-08-08T14:35:26.122Z,3.42
2017-08-08T14:37:53.964Z,2.65
2017-08-08T14:40:22.519Z,2.70
2017-08-08T14:42:50.388Z,2.75
2017-08-08T14:45:18.190Z,3.00
2017-08-08T14:47:45.998Z,3.05
2017-08-08T14:50:13.838Z,3.55
2017-08-08T14:52:41.714Z,3.72
2017-08-08T14:55:09.587Z,3.40
2017-08-08T14:57:37.396Z,3.22
2017-08-08T15:00:05.971Z,3.05
2017-08-08T15:02:34.572Z,3.40
2017-08-08T15:05:02.373Z,3.45
2017-08-08T15:07:30.281Z,2.83
2017-08-08T15:09:58.087Z,3.60
2017-08-08T15:12:25.905Z,3.20
2017-08-08T15:14:54.507Z,4.05
2017-08-08T15:17:22.303Z,3.85
2017-08-08T15:19:50.162Z,3.30
2017-08-08T15:22:17.972Z,2.40
2017-08-08T15:24:46.559Z,2.80
2017-08-08T15:27:15.189Z,2.72
2017-08-08T15:29:42.991Z,3.22
2017-08-08T15:32:10.859Z,2.78
2017-08-08T15:34:39.444Z,2.97
2017-08-08T15:37:08.010Z,3.28
2017-08-08T15:39:35.840Z,3.25
2017-08-08T15:42:03.707Z,2.65
2017-08-08T15:44:31.571Z,3.17
2017-08-08T15:46:59.376Z,3.10
2017-08-08T15:49:27.952Z,2.80
2017-08-08T15:51:55.845Z,3.12
2017-08-08T15:54:23.643Z,3.50
2017-08-08T15:56:51.489Z,3.62
2017-08-08T15:59:19.283Z,3.42
2017-08-08T16:01:47.087Z,4.05
2017-08-08T16:04:15.684Z,3.10
2017-08-08T16:06:43.498Z,3.55
2017-08-08T16:09:11.375Z,3.15
2017-08-08T16:11:39.196Z,2.97
2017-08-08T16:14:06.993Z,2.45
2017-08-08T16:16:34.845Z,3.70
2017-08-08T16:19:02.674Z,3.37
2017-08-08T16:21:30.536Z,2.87
2017-08-08T16:23:58.464Z,3.20
2017-08-08T16:26:26.316Z,3.45
2017-08-08T16:28:54.155Z,2.65
2017-08-08T16:31:21.948Z,3.78
2017-08-08T16:33:50.627Z,3.05
2017-08-08T16:36:18.411Z,3.70
2017-08-08T16:38:46.974Z,3.37
2017-08-08T16:41:15.582Z,3.10
2017-08-08T16:43:43.395Z,3.35
2017-08-08T16:46:11.231Z,3.40
2017-08-08T16:48:39.025Z,3.65
2017-08-08T16:51:06.847Z,3.00
2017-08-08T16:53:34.683Z,2.60
2017-08-08T16:56:02.511Z,2.67
2017-08-08T16:58:30.423Z,3.65
2017-08-08T17:00:58.263Z,3.78
2017-08-08T17:03:26.085Z,3.62
2017-08-08T17:05:53.937Z,2.87
2017-08-08T17:08:21.797Z,3.75
2017-08-08T17:10:49.730Z,3.03
2017-08-08T17:13:17.604Z,3.47
2017-08-08T17:15:45.481Z,3.15
2017-08-08T17:18:13.308Z,3.58
2017-08-08T17:20:41.882Z,3.00
2017-08-08T17:23:10.535Z,2.75
2017-08-08T17:25:38.338Z,3.05
2017-08-08T17:28:07.071Z,3.50
2017-08-08T17:30:34.903Z,2.95
2017-08-08T17:33:02.705Z,3.37
2017-08-08T17:35:30.622Z,3.50
2017-08-08T17:37:59.183Z,4.00
2017-08-08T17:40:26.980Z,3.80
2017-08-08T17:42:54.804Z,3.60
2017-08-08T17:45:22.603Z,3.65
2017-08-08T17:47:50.459Z,2.83
2017-08-08T17:50:18.256Z,3.62
2017-08-08T17:52:46.072Z,3.30
2017-08-08T17:55:14.667Z,2.83
2017-08-08T17:57:42.480Z,3.75
2017-08-08T18:00:10.374Z,3.25
2017-08-08T18:02:38.935Z,4.03
2017-08-08T18:05:06.734Z,3.53
2017-08-08T18:07:34.555Z,3.80
2017-08-08T18:10:02.421Z,3.87
2017-08-08T18:12:30.277Z,4.03
2017-08-08T18:14:58.078Z,3.85
2017-08-08T18:17:25.883Z,3.60
2017-08-08T18:19:53.720Z,3.28
2017-08-08T18:22:21.515Z,3.40
2017-08-08T18:24:49.400Z,2.90
2017-08-08T18:27:17.405Z,3.17
2017-08-08T18:29:45.276Z,3.37
2017-08-08T18:32:13.118Z,3.50
2017-08-08T18:34:41.700Z,4.03
2017-08-08T18:37:10.336Z,4.32
2017-08-08T18:39:38.141Z,3.42
2017-08-08T18:42:06.903Z,3.95
2017-08-08T18:44:34.849Z,4.82
2017-08-08T18:47:02.667Z,3.90
2017-08-08T18:49:31.309Z,4.10
2017-08-08T18:51:59.106Z,3.58
2017-08-08T18:54:27.688Z,3.40
2017-08-08T18:56:56.310Z,3.67
2017-08-08T18:59:24.138Z,4.00
2017-08-08T19:01:52.023Z,3.20
2017-08-08T19:04:19.812Z,4.55
2017-08-08T19:06:47.777Z,4.15
2017-08-08T19:09:15.676Z,3.58
2017-08-08T19:11:43.504Z,4.78
2017-08-08T19:14:11.403Z,5.10
2017-08-08T19:16:39.980Z,4.20
2017-08-08T19:19:07.807Z,4.30
2017-08-08T19:21:35.634Z,4.53
2017-08-08T19:24:03.511Z,5.53
2017-08-08T19:26:31.419Z,5.15
2017-08-08T19:28:59.271Z,4.68
2017-08-08T19:31:27.078Z,5.43
2017-08-08T19:33:55.662Z,4.20
2017-08-08T19:36:24.254Z,4.70
2017-08-08T19:38:52.119Z,4.62
2017-08-08T19:41:19.918Z,4.72
2017-08-08T19:43:47.722Z,4.85
2017-08-08T19:46:16.321Z,5.85
2017-08-08T19:48:44.136Z,5.15
2017-08-08T19:51:11.992Z,4.40
2017-08-08T19:53:39.952Z,4.78
2017-08-08T19:56:07.757Z,4.55
2017-08-08T19:58:36.357Z,5.20
2017-08-08T20:01:04.208Z,4.80
2017-08-08T20:03:32.060Z,4.68
2017-08-08T20:06:00.624Z,5.00
2017-08-08T20:08:28.422Z,4.95
2017-08-08T20:10:56.253Z,5.80
2017-08-08T20:13:24.050Z,4.90
2017-08-08T20:15:51.895Z,6.07
2017-08-08T20:18:19.710Z,6.05
2017-08-08T20:20:47.511Z,4.82
2017-08-08T20:23:15.528Z,4.65
2017-08-08T20:25:43.322Z,4.97
2017-08-08T20:28:11.192Z,4.22
2017-08-08T20:30:38.993Z,4.95
2017-08-08T20:33:06.795Z,5.50
2017-08-08T20:35:34.641Z,5.15
2017-08-08T20:38:02.456Z,5.32
2017-08-08T20:40:30.275Z,5.22
2017-08-08T20:42:58.080Z,5.15
2017-08-08T20:45:25.996Z,6.05
2017-08-08T20:47:53.813Z,5.85
2017-08-08T20:50:22.392Z,5.45
2017-08-08T20:52:50.232Z,6.30
2017-08-08T20:55:18.040Z,4.72
2017-08-08T20:57:46.699Z,6.70
2017-08-08T21:00:14.491Z,5.85
2017-08-08T21:02:42.283Z,4.75
2017-08-08T21:05:10.135Z,4.93
2017-08-08T21:07:38.255Z,4.65
2017-08-08T21:10:06.112Z,4.90
2017-08-08T21:12:33.907Z,5.40
2017-08-08T21:15:01.702Z,4.90
2017-08-08T21:17:29.567Z,5.43
2017-08-08T21:19:57.383Z,5.30
2017-08-08T21:22:26.016Z,6.10
2017-08-08T21:24:53.803Z,6.18
2017-08-08T21:27:21.610Z,6.72
2017-08-08T21:29:49.459Z,6.62
2017-08-08T21:32:18.033Z,6.37
2017-08-08T21:34:46.667Z,6.20
2017-08-08T21:37:14.958Z,5.35
2017-08-08T21:39:42.780Z,5.35
2017-08-08T21:42:10.655Z,6.70
2017-08-08T21:44:38.482Z,6.10
2017-08-08T21:47:07.101Z,5.20
2017-08-08T21:49:34.960Z,5.68
2017-08-08T21:52:02.760Z,6.47
2017-08-08T21:54:30.762Z,6.22
2017-08-08T21:56:58.704Z,7.10
2017-08-08T21:59:26.591Z,5.80
2017-08-08T22:01:54.430Z,5.82
2017-08-08T22:04:22.233Z,6.15
2017-08-08T22:06:50.083Z,6.05
2017-08-08T22:09:17.925Z,5.78
2017-08-08T22:11:45.783Z,5.72
2017-08-08T22:14:13.572Z,6.00
2017-08-08T22:16:42.132Z,6.30
2017-08-08T22:19:09.975Z,6.80
2017-08-08T22:21:37.771Z,6.50
2017-08-08T22:24:06.415Z,7.55
2017-08-08T22:26:34.208Z,6.45
2017-08-08T22:29:02.782Z,6.40
2017-08-08T22:31:31.378Z,7.80
2017-08-08T22:33:59.935Z,6.82
2017-08-08T22:36:27.795Z,6.70
2017-08-08T22:38:55.583Z,6.97
2017-08-08T22:41:24.146Z,7.03
2017-08-08T22:43:52.757Z,6.90
2017-08-08T22:46:20.560Z,6.87
2017-08-08T22:48:48.427Z,7.37
2017-08-08T22:51:16.218Z,6.85
2017-08-08T22:53:44.024Z,8.38
2017-08-08T22:56:11.855Z,7.85
2017-08-08T22:58:39.669Z,7.93
2017-08-08T23:01:07.523Z,8.00
2017-08-08T23:03:35.339Z,8.02
2017-08-08T23:06:03.926Z,8.10
2017-08-08T23:08:32.514Z,8.35
2017-08-08T23:11:00.306Z,9.00
2017-08-08T23:13:28.168Z,8.30
2017-08-08T23:15:55.957Z,8.88
2017-08-08T23:18:23.748Z,8.38
2017-08-08T23:20:52.340Z,9.70
2017-08-08T23:23:20.966Z,9.10
2017-08-08T23:25:48.811Z,8.90
2017-08-08T23:28:16.612Z,8.02
2017-08-08T23:30:44.403Z,8.52
2017-08-08T23:33:13.001Z,8.82
2017-08-08T23:35:40.799Z,9.60
2017-08-08T23:38:08.666Z,8.90
2017-08-08T23:40:36.459Z,10.27
2017-08-08T23:43:04.259Z,9.77
2017-08-08T23:45:32.135Z,9.43
2017-08-08T23:47:59.941Z,9.98
2017-08-08T23:50:27.792Z,9.68
2017-08-08T23:52:55.648Z,9.43
2017-08-08T23:55:23.473Z,10.70
2017-08-08T23:57:51.315Z,10.68
